METAR Data
IDs: Format: Raw Decoded Include TAF

Data at: 0855 UTC 26 Jan 2020

KUBE 260835Z AUTO 27006KT 10SM OVC004 M04/M05 A2991 RMK AO2
KUBE 260815Z AUTO 28004KT 10SM OVC004 M04/M05 A2991 RMK AO2
KUBE 260755Z AUTO 29006KT 10SM OVC004 M04/M05 A2991 RMK AO2
KUBE 260735Z AUTO 29005KT 10SM OVC004 M03/M05 A2991 RMK AO2
KUBE 260715Z AUTO 29005KT 10SM OVC004 M03/M05 A2991 RMK AO2
KUBE 260655Z AUTO 28005KT 10SM OVC004 M03/M05 A2991 RMK AO2
KUBE 260635Z AUTO 29005KT 10SM OVC004 M03/M05 A2991 RMK AO2
KUBE 260615Z AUTO 29007KT 10SM OVC006 M03/M05 A2992 RMK AO2
KUBE 260555Z AUTO 29007KT 10SM OVC006 M03/M05 A2992 RMK AO2
KUBE 260535Z AUTO 31007KT 10SM OVC006 M03/M04 A2991 RMK AO2
KUBE 260515Z AUTO 32007KT 10SM OVC006 M03/M05 A2991 RMK AO2
KUBE 260455Z AUTO 33009KT 10SM OVC006 M03/M05 A2990 RMK AO2
KUBE 260435Z AUTO 31007KT 10SM OVC006 M03/M05 A2990 RMK AO2
KUBE 260415Z AUTO 33009KT 10SM OVC008 M03/M05 A2990 RMK AO2
KUBE 260355Z AUTO 30005KT 10SM OVC008 M02/M05 A2990 RMK AO2
KUBE 260335Z AUTO 31007KT 10SM OVC010 M03/M05 A2990 RMK AO2
KUBE 260315Z AUTO 31007KT 10SM OVC012 M03/M05 A2990 RMK AO2
KUBE 260255Z AUTO 29007KT 10SM OVC012 M03/M05 A2989 RMK AO2
KUBE 260235Z AUTO 30006KT 10SM SCT014 BKN046 M04/M06 A2990 RMK AO2
KUBE 260215Z AUTO 29006KT 10SM SCT046 M03/M06 A2990 RMK AO2
KUBE 260155Z AUTO 29007KT 10SM BKN040 M03/M05 A2989 RMK AO2
KUBE 260135Z AUTO 29006KT 10SM OVC040 M02/M05 A2989 RMK AO2
KUBE 260115Z AUTO 29004KT 10SM OVC038 M01/M04 A2989 RMK AO2
KUBE 260055Z AUTO 30004KT 10SM OVC038 M01/M03 A2989 RMK AO2
KUBE 260035Z AUTO 31003KT 10SM OVC038 M01/M03 A2988 RMK AO2
KUBE 260015Z AUTO 29004KT 10SM OVC040 M02/M03 A2988 RMK AO2
KUBE 252355Z AUTO 28004KT 10SM BKN040 M02/M03 A2989 RMK AO2
KUBE 252335Z AUTO 30004KT 10SM BKN040 M01/M03 A2989 RMK AO2
KUBE 252315Z AUTO 31008KT 10SM SCT014 SCT029 OVC038 M01/M03 A2989 RMK AO2
KUBE 252255Z AUTO 31006KT 10SM -SN SCT014 BKN038 OVC045 M01/M03 A2988 RMK AO2
KUBE 252235Z AUTO 30007KT 10SM SCT014 SCT025 OVC045 00/M03 A2988 RMK AO2
KUBE 252215Z AUTO 31004KT 10SM OVC045 00/M03 A2988 RMK AO2
KUBE 252155Z AUTO 32007KT 10SM OVC043 00/M03 A2988 RMK AO2
KUBE 252135Z AUTO 32008KT 10SM OVC045 00/M03 A2988 RMK AO2
KUBE 252115Z AUTO 32008KT 10SM SCT013 SCT024 OVC045 00/M03 A2988 RMK AO2
KUBE 252055Z AUTO 32008KT 10SM SCT013 BKN020 OVC047 00/M03 A2988 RMK AO2
KUBE 252035Z AUTO 31007KT 1SM HZ BKN013 OVC020 00/M03 A2988 RMK AO2 VIS M1/4V5
KUBE 252015Z AUTO 31006KT 10SM OVC011 00/M03 A2988 RMK AO2
KUBE 251955Z AUTO 30007KT 3SM -SN OVC011 M01/M03 A2988 RMK AO2
KUBE 251935Z AUTO 31009KT 4SM -SN OVC011 00/M03 A2988 RMK AO2
KUBE 251915Z AUTO 32007KT 5SM -SN OVC011 00/M03 A2989 RMK AO2
KUBE 251855Z AUTO 30009KT 10SM -SN OVC011 00/M03 A2989 RMK AO2
KUBE 251835Z AUTO 31008KT 5SM -SN BKN009 OVC015 00/M03 A2989 RMK AO2
KUBE 251815Z AUTO 31008KT 10SM -SN OVC009 00/M03 A2989 RMK AO2
KUBE 251755Z AUTO 31007KT 10SM OVC009 00/M03 A2989 RMK AO2
KUBE 251735Z AUTO 31008KT 10SM OVC009 M01/M03 A2989 RMK AO2
KUBE 251715Z AUTO 31006KT 10SM OVC009 00/M02 A2990 RMK AO2
KUBE 251655Z AUTO 34007KT 10SM BKN009 BKN050 OVC070 M01/M03 A2990 RMK AO2
KUBE 251635Z AUTO 34008KT 10SM SCT007 SCT050 OVC070 M01/M03 A2990 RMK AO2
KUBE 251615Z AUTO 35010KT 10SM BKN007 BKN024 OVC049 M01/M03 A2989 RMK AO2
KUBE 251555Z AUTO 34011KT 10SM -SN BKN007 BKN024 OVC045 M01/M03 A2989 RMK AO2
KUBE 251535Z AUTO 34011KT 10SM OVC007 M01/M03 A2989 RMK AO2
KUBE 251515Z AUTO 34012G15KT 7SM OVC007 M01/M03 A2989 RMK AO2
KUBE 251455Z AUTO 35011KT 10SM OVC007 M02/M03 A2989 RMK AO2
KUBE 251435Z AUTO 34009KT 10SM OVC007 M02/M03 A2989 RMK AO2
KUBE 251415Z AUTO 34010KT 10SM OVC007 M02/M03 A2989 RMK AO2
KUBE 251355Z AUTO 33009KT 7SM OVC007 M02/M03 A2989 RMK AO2
KUBE 251335Z AUTO 32009KT 10SM OVC007 M02/M03 A2988 RMK AO2
KUBE 251315Z AUTO 34010KT 10SM OVC007 M02/M03 A2988 RMK AO2
KUBE 251255Z AUTO 33011G15KT 10SM OVC007 M02/M03 A2988 RMK AO2
KUBE 251235Z AUTO 34009KT 10SM OVC007 M02/M03 A2987 RMK AO2
KUBE 251215Z AUTO 34012KT 10SM OVC007 M02/M03 A2987 RMK AO2
KUBE 251155Z AUTO 34011KT 10SM OVC007 M02/M03 A2986 RMK AO2
KUBE 251135Z AUTO 34013KT 10SM OVC007 M02/M03 A2986 RMK AO2
KUBE 251115Z AUTO 33010KT 10SM OVC007 M02/M03 A2987 RMK AO2
KUBE 251055Z AUTO 34009KT 10SM BKN007 BKN023 OVC028 M02/M03 A2987 RMK AO2
KUBE 251035Z AUTO 33009KT 7SM OVC005 M02/M02 A2987 RMK AO2
KUBE 251015Z AUTO 33010KT 3SM -SN OVC003 M02/M02 A2987 RMK AO2
KUBE 250955Z AUTO 33009KT 5SM UP OVC003 M02/M02 A2987 RMK AO2
KUBE 250935Z AUTO 33009KT 7SM OVC005 M02/M02 A2987 RMK AO2
KUBE 250915Z AUTO 34009KT 10SM OVC005 M01/M02 A2987 RMK AO2
KUBE 250855Z AUTO 33010KT 10SM OVC005 M01/M02 A2987 RMK AO2
KUBE 250835Z AUTO 33011KT 10SM OVC005 M01/M02 A2988 RMK AO2
KUBE 250815Z AUTO 34008KT 10SM OVC005 M01/M02 A2988 RMK AO2
KUBE 250755Z AUTO 34009KT 7SM OVC005 M01/M02 A2988 RMK AO2
KUBE 250735Z AUTO 33008KT 5SM -SN OVC005 M01/M02 A2987 RMK AO2
KUBE 250715Z AUTO 34011KT 2SM -SN OVC005 M01/M02 A2988 RMK AO2
KUBE 250655Z AUTO 34009KT 4SM -SN OVC005 00/M01 A2988 RMK AO2
KUBE 250635Z AUTO 34009KT 7SM OVC005 00/M01 A2989 RMK AO2
KUBE 250615Z AUTO 34009KT 10SM OVC005 00/M01 A2989 RMK AO2
KUBE 250555Z AUTO 34009KT 10SM OVC007 00/M01 A2990 RMK AO2
KUBE 250535Z AUTO 35008KT 10SM OVC007 00/M01 A2990 RMK AO2
KUBE 250515Z AUTO 35007KT 10SM OVC007 00/M02 A2991 RMK AO2
KUBE 250455Z AUTO 34008KT 10SM OVC009 00/M02 A2991 RMK AO2
KUBE 250435Z AUTO 36007KT 10SM OVC009 00/M02 A2991 RMK AO2
KUBE 250415Z AUTO 36007KT 10SM OVC009 00/M02 A2991 RMK AO2
KUBE 250355Z AUTO 36007KT 10SM OVC009 00/M02 A2991 RMK AO2
KUBE 250335Z AUTO 01009KT 10SM OVC009 00/M02 A2992 RMK AO2
KUBE 250315Z AUTO 02007KT 10SM -SN OVC009 00/M02 A2992 RMK AO2
KUBE 250255Z AUTO 01009KT 10SM OVC009 00/M02 A2992 RMK AO2
KUBE 250235Z AUTO 01008KT 10SM OVC009 00/M02 A2993 RMK AO2
KUBE 250215Z AUTO 36009KT 10SM OVC009 00/M02 A2992 RMK AO2
KUBE 250155Z AUTO 36007KT 10SM OVC009 00/M01 A2993 RMK AO2
KUBE 250135Z AUTO 36007KT 7SM -SN OVC009 00/M02 A2993 RMK AO2
KUBE 250115Z AUTO 36007KT 10SM OVC009 00/M02 A2993 RMK AO2
KUBE 250055Z AUTO 36007KT 10SM OVC011 00/M02 A2994 RMK AO2
KUBE 250035Z AUTO 36007KT 10SM OVC011 00/M02 A2994 RMK AO2
KUBE 250015Z AUTO 35007KT 10SM OVC011 00/M01 A2994 RMK AO2
KUBE 242355Z AUTO 35007KT 10SM OVC011 00/M01 A2995 RMK AO2
KUBE 242335Z AUTO 35006KT 10SM BKN011 OVC019 00/M01 A2994 RMK AO2
KUBE 242315Z AUTO 35008KT 10SM BKN013 OVC018 00/M01 A2994 RMK AO2
KUBE 242255Z AUTO 35006KT 10SM OVC018 00/M01 A2994 RMK AO2
KUBE 242235Z AUTO 01005KT 10SM OVC018 00/M02 A2994 RMK AO2
KUBE 242215Z AUTO 01007KT 10SM SCT010 OVC018 00/M01 A2994 RMK AO2
KUBE 242155Z AUTO 01005KT 5SM -SN BKN016 BKN023 OVC050 00/M01 A2994 RMK AO2
KUBE 242135Z AUTO 36007KT 10SM -SN OVC015 00/M01 A2994 RMK AO2
KUBE 242115Z AUTO 36006KT 7SM -SN OVC012 00/M01 A2994 RMK AO2